createdAt,value
2023-02-17T00:00:57.521Z,24.33
2023-02-17T00:03:24.928Z,26.13
2023-02-17T00:05:52.329Z,23.48
2023-02-17T00:08:19.562Z,26.40
2023-02-17T00:10:58.045Z,26.15
2023-02-17T00:13:25.869Z,24.95
2023-02-17T00:15:53.319Z,26.85
2023-02-17T00:18:21.727Z,27.90
2023-02-17T00:20:49.205Z,25.45
2023-02-17T00:23:16.436Z,27.80
2023-02-17T00:25:43.893Z,26.23
2023-02-17T00:28:11.086Z,24.98
2023-02-17T00:30:39.226Z,27.17
2023-02-17T00:33:06.355Z,26.42
2023-02-17T00:35:33.606Z,27.83
2023-02-17T00:38:00.889Z,27.77
2023-02-17T00:40:28.023Z,27.85
2023-02-17T00:42:55.193Z,28.52
2023-02-17T00:45:22.316Z,26.58
2023-02-17T00:47:49.517Z,27.15
2023-02-17T00:50:16.772Z,28.38
2023-02-17T00:52:43.925Z,26.40
2023-02-17T00:55:11.096Z,26.83
2023-02-17T00:57:38.271Z,27.77
2023-02-17T01:00:06.257Z,26.45
2023-02-17T01:02:33.480Z,28.60
2023-02-17T01:05:00.679Z,27.40
2023-02-17T01:07:27.881Z,25.98
2023-02-17T01:09:55.016Z,27.40
2023-02-17T01:12:22.206Z,27.10
2023-02-17T01:14:49.589Z,26.23
2023-02-17T01:17:16.728Z,27.73
2023-02-17T01:19:43.945Z,27.15
2023-02-17T01:22:11.118Z,27.58
2023-02-17T01:24:39.354Z,26.58
2023-02-17T01:27:06.702Z,26.90
2023-02-17T01:29:33.900Z,26.02
2023-02-17T01:32:01.053Z,26.42
2023-02-17T01:34:28.242Z,27.27
2023-02-17T01:36:55.543Z,26.55
2023-02-17T01:39:22.921Z,27.08
2023-02-17T01:41:50.638Z,28.17
2023-02-17T01:44:23.504Z,26.08
2023-02-17T01:46:53.218Z,27.77
2023-02-17T01:49:27.784Z,25.63
2023-02-17T01:52:27.542Z,27.10
2023-02-17T01:54:59.276Z,27.17
2023-02-17T01:57:29.254Z,26.00
2023-02-17T01:59:56.879Z,28.05
2023-02-17T02:02:24.757Z,28.17
2023-02-17T02:04:53.570Z,27.33
2023-02-17T02:07:25.142Z,28.15
2023-02-17T02:09:56.120Z,27.55
2023-02-17T02:12:35.696Z,29.35
2023-02-17T02:15:13.161Z,27.88
2023-02-17T02:18:18.712Z,29.27
2023-02-17T02:21:36.029Z,29.30
2023-02-17T02:24:15.707Z,28.90
2023-02-17T02:26:48.912Z,29.52
2023-02-17T02:29:34.679Z,29.65
2023-02-17T02:32:04.484Z,29.58
2023-02-17T02:34:38.153Z,30.08
2023-02-17T02:37:18.389Z,29.90
2023-02-17T02:39:48.956Z,29.85
2023-02-17T02:42:22.033Z,29.98
2023-02-17T02:44:49.477Z,30.17
2023-02-17T02:47:40.821Z,29.05
2023-02-17T02:50:10.567Z,29.70
2023-02-17T02:52:48.679Z,28.15
2023-02-17T02:55:20.513Z,31.52
2023-02-17T02:58:00.812Z,32.47
2023-02-17T03:00:28.006Z,31.42
2023-02-17T03:03:02.225Z,31.13
2023-02-17T03:05:37.108Z,30.55
2023-02-17T03:08:10.864Z,30.92
2023-02-17T03:10:48.692Z,30.80
2023-02-17T03:13:17.550Z,33.22
2023-02-17T03:15:45.501Z,32.72
2023-02-17T03:18:12.815Z,30.73
2023-02-17T03:21:07.202Z,34.15
2023-02-17T03:23:34.571Z,31.85
2023-02-17T03:26:01.925Z,30.65
2023-02-17T03:28:29.359Z,31.67
2023-02-17T03:30:56.584Z,34.05
2023-02-17T03:33:24.005Z,34.50
2023-02-17T03:35:51.255Z,32.10
2023-02-17T03:38:18.494Z,34.65
2023-02-17T03:40:45.700Z,34.58
2023-02-17T03:43:12.940Z,31.77
2023-02-17T03:45:40.244Z,34.45
2023-02-17T03:48:07.496Z,33.53
2023-02-17T03:50:34.779Z,34.47
2023-02-17T03:53:01.946Z,32.78
2023-02-17T03:55:29.178Z,33.72
2023-02-17T03:57:56.449Z,34.22
2023-02-17T04:00:24.186Z,33.83
2023-02-17T04:02:51.509Z,33.30
2023-02-17T04:05:18.916Z,33.45
2023-02-17T04:07:46.205Z,34.80
2023-02-17T04:10:13.534Z,34.10
2023-02-17T04:12:40.823Z,34.28
2023-02-17T04:15:09.463Z,36.45
2023-02-17T04:17:38.023Z,35.80
2023-02-17T04:20:07.339Z,33.70
2023-02-17T04:22:34.582Z,31.65
2023-02-17T04:25:01.866Z,34.50
2023-02-17T04:27:29.150Z,35.25
2023-02-17T04:29:56.417Z,33.15
2023-02-17T04:32:23.674Z,35.03
2023-02-17T04:34:50.865Z,34.63
2023-02-17T04:37:18.140Z,33.65
2023-02-17T04:39:45.368Z,33.22
2023-02-17T04:42:12.680Z,32.50
2023-02-17T04:44:39.967Z,32.80
2023-02-17T04:47:07.336Z,34.50
2023-02-17T04:49:34.714Z,30.27
2023-02-17T04:52:02.120Z,32.28
2023-02-17T04:54:29.353Z,32.70
2023-02-17T04:56:56.722Z,33.55
2023-02-17T04:59:25.587Z,30.92
2023-02-17T05:01:53.044Z,29.90
2023-02-17T05:04:20.663Z,31.55
2023-02-17T05:06:47.952Z,31.70
2023-02-17T05:09:15.217Z,31.73
2023-02-17T05:11:42.549Z,30.77
2023-02-17T05:14:09.895Z,33.28
2023-02-17T05:16:37.129Z,32.05
2023-02-17T05:19:04.739Z,31.85
2023-02-17T05:21:32.755Z,31.38
2023-02-17T05:24:00.133Z,31.83
2023-02-17T05:26:27.491Z,31.45
2023-02-17T05:28:55.062Z,31.98
2023-02-17T05:31:22.397Z,31.05
2023-02-17T05:33:50.080Z,31.60
2023-02-17T05:36:17.410Z,33.85
2023-02-17T05:38:49.071Z,31.52
2023-02-17T05:41:16.957Z,30.08
2023-02-17T05:43:44.269Z,30.55
2023-02-17T05:46:11.924Z,31.25
2023-02-17T05:48:39.239Z,32.38
2023-02-17T05:51:06.817Z,32.80
2023-02-17T05:53:34.093Z,33.35
2023-02-17T05:56:01.823Z,31.55
2023-02-17T05:58:37.063Z,33.60
2023-02-17T06:01:09.351Z,32.28
2023-02-17T06:03:40.092Z,32.85
2023-02-17T06:06:08.137Z,32.42
2023-02-17T06:08:36.671Z,31.35
2023-02-17T06:11:04.296Z,31.92
2023-02-17T06:13:31.660Z,32.05
2023-02-17T06:15:59.263Z,32.35
2023-02-17T06:18:26.733Z,30.65
2023-02-17T06:20:57.579Z,32.75
2023-02-17T06:23:25.439Z,31.58
2023-02-17T06:25:53.294Z,31.98
2023-02-17T06:28:20.638Z,31.15
2023-02-17T06:30:47.921Z,29.08
2023-02-17T06:33:15.885Z,29.70
2023-02-17T06:35:44.632Z,30.88
2023-02-17T06:38:11.855Z,31.67
2023-02-17T06:40:39.143Z,31.15
2023-02-17T06:43:06.673Z,30.17
2023-02-17T06:45:34.088Z,29.05
2023-02-17T06:48:01.511Z,27.77
2023-02-17T06:50:28.801Z,26.88
2023-02-17T06:52:56.485Z,29.05
2023-02-17T06:55:23.968Z,26.58
2023-02-17T06:57:51.293Z,26.50
2023-02-17T07:00:19.271Z,26.70
2023-02-17T07:02:47.183Z,25.95
2023-02-17T07:05:14.731Z,27.90
2023-02-17T07:07:42.084Z,26.83
2023-02-17T07:10:09.753Z,26.50
2023-02-17T07:12:37.160Z,25.58
2023-02-17T07:15:04.841Z,25.27
2023-02-17T07:17:32.194Z,24.92
2023-02-17T07:19:59.580Z,24.65
2023-02-17T07:22:27.079Z,24.40
2023-02-17T07:24:54.444Z,24.25
2023-02-17T07:27:22.002Z,24.08
2023-02-17T07:29:49.284Z,23.83
2023-02-17T07:32:16.551Z,24.65
2023-02-17T07:34:44.277Z,23.52
2023-02-17T07:37:11.523Z,22.83
2023-02-17T07:39:39.012Z,23.63
2023-02-17T07:42:06.277Z,20.80
2023-02-17T07:44:33.661Z,21.10
2023-02-17T07:47:00.873Z,21.40
2023-02-17T07:49:28.312Z,22.38
2023-02-17T07:51:58.068Z,22.48
2023-02-17T07:54:25.306Z,21.65
2023-02-17T07:56:52.548Z,20.75
2023-02-17T07:59:20.036Z,19.85
2023-02-17T08:01:47.516Z,22.00
2023-02-17T08:04:14.813Z,20.83
2023-02-17T08:06:42.027Z,20.45
2023-02-17T08:09:30.974Z,21.40
2023-02-17T08:12:16.712Z,22.10
2023-02-17T08:14:44.029Z,20.58
2023-02-17T08:17:11.369Z,20.95
2023-02-17T08:19:47.940Z,20.15
2023-02-17T08:22:18.247Z,19.90
2023-02-17T08:24:46.009Z,20.20
2023-02-17T08:27:14.788Z,18.17
2023-02-17T08:29:42.200Z,18.50
2023-02-17T08:32:09.609Z,18.73
2023-02-17T08:34:37.329Z,19.20
2023-02-17T08:37:06.221Z,18.27
2023-02-17T08:39:35.027Z,19.73
2023-02-17T08:42:03.301Z,19.02
2023-02-17T08:44:30.843Z,17.25
2023-02-17T08:46:58.131Z,18.20
2023-02-17T08:49:28.474Z,18.40
2023-02-17T08:51:55.810Z,18.58
2023-02-17T08:54:23.078Z,16.52
2023-02-17T08:56:50.368Z,18.27
2023-02-17T08:59:17.573Z,17.63
2023-02-17T09:01:44.925Z,19.98
2023-02-17T09:04:13.654Z,18.42
2023-02-17T09:06:43.984Z,18.50
2023-02-17T09:09:13.247Z,18.60
2023-02-17T09:11:40.749Z,18.50
2023-02-17T09:14:08.697Z,18.27
2023-02-17T09:16:36.199Z,18.77
2023-02-17T09:19:03.863Z,17.95
2023-02-17T09:21:31.241Z,18.45
2023-02-17T09:23:58.603Z,19.65
2023-02-17T09:26:25.932Z,18.83
2023-02-17T09:28:53.168Z,19.38
2023-02-17T09:31:22.938Z,19.27
2023-02-17T09:33:51.243Z,18.38
2023-02-17T09:36:21.439Z,18.40
2023-02-17T09:38:49.442Z,21.15
2023-02-17T09:41:22.205Z,18.27
2023-02-17T09:43:50.712Z,20.02
2023-02-17T09:46:28.839Z,18.67
2023-02-17T09:48:59.644Z,19.80
2023-02-17T09:51:36.820Z,19.08
2023-02-17T09:54:17.470Z,20.65
2023-02-17T09:56:48.406Z,20.83
2023-02-17T09:59:20.788Z,19.55
2023-02-17T10:01:49.109Z,19.90
2023-02-17T10:04:22.829Z,20.85
2023-02-17T10:06:55.054Z,17.85
2023-02-17T10:09:23.734Z,19.17
2023-02-17T10:11:52.913Z,18.77
2023-02-17T10:14:40.789Z,20.92
2023-02-17T10:17:14.497Z,19.42
2023-02-17T10:19:49.386Z,20.42
2023-02-17T10:22:21.043Z,19.60
2023-02-17T10:24:48.517Z,18.88
2023-02-17T10:27:28.526Z,21.15
2023-02-17T10:30:21.462Z,18.77
2023-02-17T10:33:02.824Z,20.50
2023-02-17T10:35:52.498Z,21.08
2023-02-17T10:38:41.633Z,19.65
2023-02-17T10:41:11.136Z,20.52
2023-02-17T10:43:38.421Z,21.30
2023-02-17T10:46:07.715Z,20.80
2023-02-17T10:48:39.021Z,21.17
2023-02-17T10:51:06.931Z,19.83
2023-02-17T10:53:39.327Z,21.10
2023-02-17T10:56:14.403Z,20.25
2023-02-17T10:58:59.923Z,21.85
2023-02-17T11:01:28.099Z,19.77
2023-02-17T11:04:06.949Z,20.45
2023-02-17T11:06:41.857Z,19.98
2023-02-17T11:09:28.480Z,20.75
2023-02-17T11:12:13.894Z,19.70
2023-02-17T11:14:46.458Z,19.85
2023-02-17T11:17:39.879Z,19.10
2023-02-17T11:20:15.275Z,20.50
2023-02-17T11:28:30.411Z,20.50
2023-02-17T11:31:00.286Z,19.98
2023-02-17T11:33:52.446Z,21.20
2023-02-17T11:36:37.583Z,20.38
2023-02-17T11:39:18.461Z,20.08
2023-02-17T11:41:45.665Z,18.77
2023-02-17T11:44:22.989Z,18.65
2023-02-17T11:47:09.823Z,18.27
2023-02-17T11:49:55.450Z,17.80
2023-02-17T11:52:44.371Z,17.92
2023-02-17T11:55:22.350Z,16.48
2023-02-17T11:58:28.234Z,16.98
2023-02-17T12:01:09.625Z,16.63
2023-02-17T12:03:52.163Z,15.80
2023-02-17T12:06:42.878Z,14.32
2023-02-17T12:09:48.739Z,15.43
2023-02-17T12:12:19.054Z,14.43
2023-02-17T12:14:46.216Z,12.82
2023-02-17T12:17:34.113Z,14.55
2023-02-17T12:20:28.632Z,12.95
2023-02-17T12:23:15.180Z,13.63
2023-02-17T12:25:53.426Z,12.98
2023-02-17T12:28:39.330Z,14.38
2023-02-17T12:31:27.722Z,12.15
2023-02-17T12:34:05.678Z,11.75
2023-02-17T12:36:38.435Z,11.52
2023-02-17T12:39:17.536Z,11.20
2023-02-17T12:42:15.880Z,11.00
2023-02-17T12:44:49.982Z,12.18
2023-02-17T12:47:46.603Z,11.15
2023-02-17T12:50:27.594Z,10.05
2023-02-17T12:52:57.683Z,10.82
2023-02-17T12:55:35.859Z,10.77
2023-02-17T12:58:13.411Z,9.88
2023-02-17T13:00:49.719Z,9.55
2023-02-17T13:03:17.794Z,8.82
2023-02-17T13:06:00.778Z,9.10
2023-02-17T13:08:42.026Z,8.05
2023-02-17T13:11:25.832Z,8.23
2023-02-17T13:13:53.041Z,9.02
2023-02-17T13:16:20.447Z,7.85
2023-02-17T13:18:50.610Z,8.40
2023-02-17T13:21:22.656Z,7.57
2023-02-17T13:24:15.091Z,7.22
2023-02-17T13:26:44.211Z,6.22
2023-02-17T13:29:11.380Z,8.20
2023-02-17T13:31:47.333Z,7.50
2023-02-17T13:34:25.519Z,6.13
2023-02-17T13:36:52.828Z,6.13
2023-02-17T13:39:25.933Z,5.95
2023-02-17T13:41:55.905Z,6.28
2023-02-17T13:44:27.932Z,5.70
2023-02-17T13:47:11.285Z,6.40
2023-02-17T13:49:38.697Z,6.00
2023-02-17T13:52:10.464Z,6.28
2023-02-17T13:54:37.681Z,6.20
2023-02-17T13:57:04.862Z,5.63
2023-02-17T13:59:37.033Z,5.07
2023-02-17T14:02:19.414Z,5.32
2023-02-17T14:04:55.130Z,5.50
2023-02-17T14:07:22.631Z,5.15
2023-02-17T14:09:54.448Z,5.10
2023-02-17T14:12:24.256Z,5.38
2023-02-17T14:14:51.576Z,5.20
2023-02-17T14:17:32.968Z,5.18
2023-02-17T14:20:00.834Z,5.72
2023-02-17T14:22:34.135Z,5.40
2023-02-17T14:25:11.616Z,6.60
2023-02-17T14:27:47.949Z,6.07
2023-02-17T14:30:28.783Z,5.80
2023-02-17T14:33:02.291Z,6.57
2023-02-17T14:35:30.106Z,5.53
2023-02-17T14:38:27.847Z,6.05
2023-02-17T14:41:02.712Z,5.65
2023-02-17T14:43:30.498Z,6.20
2023-02-17T14:45:58.040Z,5.40
2023-02-17T14:48:27.687Z,6.60
2023-02-17T14:50:57.332Z,6.95
2023-02-17T14:53:28.417Z,6.50
2023-02-17T14:56:26.142Z,6.60
2023-02-17T14:58:53.918Z,7.45
2023-02-17T15:01:23.243Z,6.85
2023-02-17T15:03:50.677Z,7.30
2023-02-17T15:06:23.047Z,8.23
2023-02-17T15:08:53.522Z,8.45
2023-02-17T15:11:33.708Z,8.88
2023-02-17T15:14:02.913Z,9.70
2023-02-17T15:16:30.673Z,9.80
2023-02-17T15:19:01.130Z,10.27
2023-02-17T15:21:31.665Z,10.43
2023-02-17T15:24:00.195Z,9.95
2023-02-17T15:26:30.451Z,10.00
2023-02-17T15:29:02.836Z,9.90
2023-02-17T15:31:34.236Z,10.60
2023-02-17T15:34:06.095Z,11.70
2023-02-17T15:36:33.289Z,11.13
2023-02-17T15:39:00.578Z,10.68
2023-02-17T15:41:29.900Z,10.15
2023-02-17T15:43:58.748Z,11.00
2023-02-17T15:46:31.612Z,10.77
2023-02-17T15:48:59.122Z,10.88
2023-02-17T15:51:26.507Z,10.75
2023-02-17T15:53:53.763Z,11.75
2023-02-17T15:56:30.542Z,12.02
2023-02-17T15:58:59.320Z,10.68
2023-02-17T16:01:31.744Z,11.73
2023-02-17T16:03:59.482Z,11.35
2023-02-17T16:06:27.466Z,10.98
2023-02-17T16:08:55.325Z,11.00
2023-02-17T16:11:22.971Z,11.13
2023-02-17T16:13:50.609Z,10.38
2023-02-17T16:16:24.803Z,11.23
2023-02-17T16:18:52.236Z,10.85
2023-02-17T16:21:19.519Z,11.43
2023-02-17T16:23:46.770Z,11.48
2023-02-17T16:26:25.933Z,11.98
2023-02-17T16:28:53.402Z,11.63
2023-02-17T16:31:20.715Z,10.80
2023-02-17T16:33:48.206Z,11.05
2023-02-17T16:36:17.715Z,10.00
2023-02-17T16:38:50.543Z,11.10
2023-02-17T16:41:20.260Z,10.38
2023-02-17T16:43:47.790Z,9.18
2023-02-17T16:46:36.364Z,8.73
2023-02-17T16:49:11.668Z,7.63
2023-02-17T16:51:43.287Z,8.57
2023-02-17T16:54:16.295Z,7.30
2023-02-17T16:56:48.865Z,7.35
2023-02-17T17:01:50.931Z,6.75
2023-02-17T17:04:18.319Z,7.32
2023-02-17T17:06:51.782Z,6.45
2023-02-17T17:09:24.351Z,6.18
2023-02-17T17:11:51.732Z,6.20
2023-02-17T17:14:21.528Z,6.10
2023-02-17T17:16:55.797Z,5.35
2023-02-17T17:19:23.582Z,5.43
2023-02-17T17:21:55.851Z,5.50
2023-02-17T17:24:26.099Z,5.00
2023-02-17T17:26:55.943Z,4.35
2023-02-17T17:29:23.144Z,5.45
2023-02-17T17:31:51.106Z,5.00
2023-02-17T17:34:18.387Z,5.28
2023-02-17T17:36:51.713Z,4.75
2023-02-17T17:39:21.264Z,5.13
2023-02-17T17:41:49.516Z,4.75
2023-02-17T17:44:16.819Z,5.13
2023-02-17T17:46:44.419Z,5.20
2023-02-17T17:49:14.329Z,4.32
2023-02-17T17:51:41.884Z,4.05
2023-02-17T17:54:09.721Z,4.20
2023-02-17T17:56:42.488Z,4.30
2023-02-17T17:59:11.547Z,3.65
2023-02-17T18:01:39.033Z,3.75
2023-02-17T18:04:08.020Z,4.47
2023-02-17T18:06:41.825Z,4.43
2023-02-17T18:09:25.730Z,5.05
2023-02-17T18:12:00.390Z,4.60
2023-02-17T18:14:27.636Z,3.33
2023-02-17T18:16:54.868Z,2.97
2023-02-17T18:19:22.786Z,2.88
2023-02-17T18:21:49.998Z,2.17
2023-02-17T18:24:17.358Z,2.30
2023-02-17T18:26:44.649Z,2.55
2023-02-17T18:29:11.901Z,2.28
2023-02-17T18:31:39.172Z,2.28
2023-02-17T18:34:06.530Z,2.03
2023-02-17T18:36:33.768Z,1.92
2023-02-17T18:39:01.027Z,1.83
2023-02-17T18:41:30.809Z,2.13
2023-02-17T18:43:59.439Z,2.38
2023-02-17T18:46:30.536Z,1.52
2023-02-17T18:48:57.799Z,1.88
2023-02-17T18:51:27.595Z,1.95
2023-02-17T18:53:56.597Z,1.90
2023-02-17T18:56:27.078Z,2.00
2023-02-17T18:58:57.607Z,2.10
2023-02-17T19:01:33.828Z,2.05
2023-02-17T19:04:01.520Z,1.60
2023-02-17T19:06:33.632Z,2.97
2023-02-17T19:09:04.168Z,2.03
2023-02-17T19:11:32.292Z,2.13
2023-02-17T19:14:04.996Z,1.70
2023-02-17T19:16:35.638Z,1.80
2023-02-17T19:19:03.440Z,2.15
2023-02-17T19:21:30.782Z,1.90
2023-02-17T19:23:58.011Z,1.90
2023-02-17T19:26:28.610Z,1.95
2023-02-17T19:28:55.871Z,2.10
2023-02-17T19:31:23.349Z,1.67
2023-02-17T19:33:50.711Z,1.90
2023-02-17T19:36:20.347Z,1.63
2023-02-17T19:38:48.741Z,1.90
2023-02-17T19:41:17.605Z,1.88
2023-02-17T19:43:45.663Z,2.33
2023-02-17T19:46:18.373Z,1.60
2023-02-17T19:48:46.188Z,2.03
2023-02-17T19:51:16.567Z,1.88
2023-02-17T19:53:44.258Z,2.25
2023-02-17T19:56:14.516Z,1.70
2023-02-17T19:58:43.369Z,1.83
2023-02-17T20:01:16.844Z,2.40
2023-02-17T20:03:44.887Z,3.35
2023-02-17T20:06:21.809Z,2.78
2023-02-17T20:08:59.304Z,2.58
2023-02-17T20:11:30.262Z,2.35
2023-02-17T20:14:04.871Z,1.70
2023-02-17T20:16:33.032Z,2.27
2023-02-17T20:19:01.515Z,2.22
2023-02-17T20:21:31.394Z,2.55
2023-02-17T20:23:59.148Z,2.80
2023-02-17T20:26:29.519Z,3.20
2023-02-17T20:28:58.052Z,2.55
2023-02-17T20:31:28.471Z,3.10
2023-02-17T20:33:55.946Z,2.75
2023-02-17T20:36:23.724Z,2.45
2023-02-17T20:38:50.990Z,2.67
2023-02-17T20:41:31.982Z,2.95
2023-02-17T20:44:02.908Z,2.97
2023-02-17T20:46:31.088Z,2.80
2023-02-17T20:48:58.880Z,3.00
2023-02-17T20:51:26.563Z,2.72
2023-02-17T20:54:03.649Z,2.88
2023-02-17T20:56:39.852Z,2.83
2023-02-17T20:59:10.356Z,2.67
2023-02-17T21:01:37.932Z,3.40
2023-02-17T21:04:09.109Z,3.10
2023-02-17T21:06:41.449Z,2.97
2023-02-17T21:09:17.357Z,3.05
2023-02-17T21:11:45.536Z,2.80
2023-02-17T21:14:13.288Z,2.78
2023-02-17T21:16:40.958Z,2.85
2023-02-17T21:19:09.292Z,2.70
2023-02-17T21:21:36.869Z,2.33
2023-02-17T21:27:08.002Z,3.53
2023-02-17T21:29:36.644Z,2.78
2023-02-17T21:32:06.991Z,3.30
2023-02-17T21:34:38.412Z,2.75
2023-02-17T21:37:08.326Z,2.90
2023-02-17T21:39:36.375Z,3.38
2023-02-17T21:42:04.203Z,2.65
2023-02-17T21:44:50.121Z,2.80
2023-02-17T21:47:18.095Z,2.60
2023-02-17T21:49:45.506Z,2.08
2023-02-17T21:52:13.483Z,2.55
2023-02-17T21:54:41.022Z,3.25
2023-02-17T21:57:08.650Z,3.10
2023-02-17T21:59:35.892Z,3.80
2023-02-17T22:02:03.292Z,4.20
2023-02-17T22:04:33.579Z,3.72
2023-02-17T22:07:00.966Z,4.25
2023-02-17T22:09:28.252Z,3.17
2023-02-17T22:11:55.687Z,3.25
2023-02-17T22:14:23.622Z,3.28
2023-02-17T22:16:51.600Z,3.55
2023-02-17T22:19:22.813Z,3.13
2023-02-17T22:21:51.084Z,2.85
2023-02-17T22:24:20.725Z,3.45
2023-02-17T22:26:49.094Z,3.58
2023-02-17T22:29:16.747Z,3.38
2023-02-17T22:31:47.481Z,3.05
2023-02-17T22:34:15.498Z,3.83
2023-02-17T22:36:42.712Z,3.22
2023-02-17T22:39:13.739Z,2.85
2023-02-17T22:41:40.926Z,2.97
2023-02-17T22:44:10.750Z,3.40
2023-02-17T22:46:38.113Z,3.63
2023-02-17T22:49:08.308Z,3.15
2023-02-17T22:51:43.399Z,3.60
2023-02-17T22:54:13.633Z,2.92
2023-02-17T22:56:40.882Z,2.63
2023-02-17T22:59:08.059Z,3.00
2023-02-17T23:01:38.111Z,3.33
2023-02-17T23:04:06.874Z,2.85
2023-02-17T23:06:36.384Z,2.58
2023-02-17T23:09:04.854Z,3.45
2023-02-17T23:11:50.259Z,3.03
2023-02-17T23:14:28.115Z,2.92
2023-02-17T23:16:59.992Z,3.00
2023-02-17T23:19:28.231Z,2.42
2023-02-17T23:21:58.011Z,3.63
2023-02-17T23:24:26.672Z,3.47
2023-02-17T23:26:55.684Z,3.83
2023-02-17T23:29:23.478Z,3.15
2023-02-17T23:31:50.836Z,3.28
2023-02-17T23:34:18.275Z,3.47
2023-02-17T23:36:46.387Z,3.90
2023-02-17T23:39:14.698Z,3.50
2023-02-17T23:41:41.940Z,3.63
2023-02-17T23:44:10.883Z,4.38
2023-02-17T23:46:38.355Z,3.20
2023-02-17T23:49:06.102Z,3.42
2023-02-17T23:51:33.804Z,4.55
2023-02-17T23:54:01.397Z,3.83
2023-02-17T23:56:32.101Z,3.63
2023-02-17T23:58:59.875Z,4.05
